createdAt,value
2022-10-01T00:01:16.361Z,92.64
2022-10-01T00:03:43.022Z,92.57
2022-10-01T00:06:18.632Z,92.80
2022-10-01T00:08:49.817Z,92.87
2022-10-01T00:11:22.087Z,93.08
2022-10-01T00:13:49.518Z,93.12
2022-10-01T00:16:19.068Z,93.29
2022-10-01T00:18:47.196Z,93.43
2022-10-01T00:21:16.559Z,93.53
2022-10-01T00:23:43.399Z,93.55
2022-10-01T00:26:17.644Z,93.87
2022-10-01T00:28:47.084Z,94.06
2022-10-01T00:31:15.892Z,94.13
2022-10-01T00:33:42.690Z,94.05
2022-10-01T00:36:11.025Z,94.25
2022-10-01T00:38:40.179Z,94.52
2022-10-01T00:41:09.495Z,94.69
2022-10-01T00:43:40.093Z,94.87
2022-10-01T00:46:16.603Z,94.97
2022-10-01T00:48:59.078Z,95.35
2022-10-01T00:51:29.610Z,95.29
2022-10-01T00:54:02.755Z,95.49
2022-10-01T00:56:30.863Z,95.64
2022-10-01T00:58:57.814Z,95.60
2022-10-01T01:01:24.725Z,95.90
2022-10-01T01:03:51.513Z,96.02
2022-10-01T01:06:18.308Z,96.00
2022-10-01T01:08:45.156Z,96.12
2022-10-01T01:11:33.159Z,96.05
2022-10-01T01:14:22.677Z,95.87
2022-10-01T01:16:59.209Z,95.96
2022-10-01T01:19:38.462Z,96.13
2022-10-01T01:22:07.201Z,96.31
2022-10-01T01:24:45.653Z,96.26
2022-10-01T01:27:37.666Z,96.36
2022-10-01T01:30:08.274Z,96.37
2022-10-01T01:32:37.793Z,96.55
2022-10-01T01:35:08.582Z,96.69
2022-10-01T01:37:37.982Z,96.51
2022-10-01T01:40:11.020Z,96.44
2022-10-01T01:42:41.063Z,96.41
2022-10-01T01:45:12.202Z,96.38
2022-10-01T01:47:41.223Z,96.51
2022-10-01T01:50:08.568Z,96.53
2022-10-01T01:52:35.323Z,96.50
2022-10-01T01:55:08.387Z,96.58
2022-10-01T01:57:43.672Z,96.56
2022-10-01T02:00:12.439Z,96.69
2022-10-01T02:02:43.043Z,96.85
2022-10-01T02:05:13.734Z,96.87
2022-10-01T02:08:05.071Z,97.00
2022-10-01T02:11:01.034Z,96.96
2022-10-01T02:13:35.078Z,97.04
2022-10-01T02:16:30.481Z,97.14
2022-10-01T02:19:00.236Z,97.28
2022-10-01T02:21:55.223Z,97.28
2022-10-01T02:24:33.184Z,97.31
2022-10-01T02:27:06.678Z,97.42
2022-10-01T02:29:35.426Z,97.41
2022-10-01T02:32:02.381Z,97.41
2022-10-01T02:34:30.280Z,97.32
2022-10-01T02:37:00.950Z,97.41
2022-10-01T02:39:30.367Z,97.63
2022-10-01T02:41:59.103Z,97.77
2022-10-01T02:44:38.036Z,97.75
2022-10-01T02:47:34.663Z,97.80
2022-10-01T02:50:02.684Z,97.98
2022-10-01T02:52:34.894Z,97.85
2022-10-01T02:55:10.741Z,97.81
2022-10-01T02:57:37.692Z,98.10
2022-10-01T03:00:11.747Z,98.31
2022-10-01T03:02:38.257Z,98.08
2022-10-01T03:05:05.860Z,98.15
2022-10-01T03:07:36.645Z,98.12
2022-10-01T03:10:04.733Z,98.35
2022-10-01T03:12:31.148Z,98.58
2022-10-01T03:14:57.631Z,98.21
2022-10-01T03:17:24.560Z,98.27
2022-10-01T03:19:51.014Z,98.56
2022-10-01T03:22:22.354Z,98.33
2022-10-01T03:24:53.158Z,98.47
2022-10-01T03:27:21.101Z,98.50
2022-10-01T03:29:47.786Z,98.48
2022-10-01T03:32:14.961Z,98.37
2022-10-01T03:34:41.384Z,98.43
2022-10-01T03:37:08.017Z,98.29
2022-10-01T03:39:34.593Z,98.39
2022-10-01T03:42:00.954Z,98.47
2022-10-01T03:44:28.414Z,98.52
2022-10-01T03:46:55.125Z,98.44
2022-10-01T03:49:21.703Z,98.59
2022-10-01T03:51:48.071Z,98.37
2022-10-01T03:54:14.548Z,98.39
2022-10-01T03:56:42.578Z,98.47
2022-10-01T03:59:12.642Z,98.40
2022-10-01T04:01:39.491Z,98.31
2022-10-01T04:04:06.376Z,98.41
2022-10-01T04:06:33.302Z,98.38
2022-10-01T04:08:59.842Z,98.31
2022-10-01T04:11:26.408Z,98.27
2022-10-01T04:13:52.836Z,98.35
2022-10-01T04:16:19.362Z,98.18
2022-10-01T04:18:45.929Z,98.26
2022-10-01T04:21:12.856Z,98.25
2022-10-01T04:23:39.244Z,98.04
2022-10-01T04:26:05.798Z,98.16
2022-10-01T04:28:32.462Z,98.08
2022-10-01T04:31:22.100Z,98.14
2022-10-01T04:33:48.415Z,98.24
2022-10-01T04:36:14.965Z,98.10
2022-10-01T04:38:41.594Z,98.08
2022-10-01T04:41:09.186Z,97.99
2022-10-01T04:43:36.664Z,98.03
2022-10-01T04:46:03.046Z,98.25
2022-10-01T04:48:29.564Z,98.09
2022-10-01T04:50:55.995Z,98.13
2022-10-01T04:53:22.376Z,98.30
2022-10-01T04:55:48.813Z,98.33
2022-10-01T04:58:15.305Z,98.23
2022-10-01T05:00:41.836Z,98.22
2022-10-01T05:03:08.235Z,98.11
2022-10-01T05:05:35.176Z,97.90
2022-10-01T05:08:02.369Z,97.54
2022-10-01T05:10:28.941Z,98.38
2022-10-01T05:12:55.362Z,98.27
2022-10-01T05:15:21.714Z,98.14
2022-10-01T05:17:48.233Z,98.18
2022-10-01T05:20:21.848Z,98.13
2022-10-01T05:22:49.426Z,98.17
2022-10-01T05:25:17.526Z,97.77
2022-10-01T05:27:44.872Z,98.39
2022-10-01T05:30:13.960Z,98.01
2022-10-01T05:32:40.523Z,98.20
2022-10-01T05:35:08.228Z,98.20
2022-10-01T05:37:35.454Z,98.21
2022-10-01T05:40:02.216Z,98.25
2022-10-01T05:42:28.838Z,98.37
2022-10-01T05:44:56.022Z,98.36
2022-10-01T05:47:22.875Z,98.18
2022-10-01T05:49:49.335Z,98.13
2022-10-01T05:52:16.551Z,98.19
2022-10-01T05:54:43.334Z,98.25
2022-10-01T05:57:10.383Z,98.05
2022-10-01T05:59:36.837Z,98.16
2022-10-01T06:02:04.293Z,98.16
2022-10-01T06:04:30.804Z,98.17
2022-10-01T06:06:57.273Z,98.41
2022-10-01T06:09:23.749Z,98.40
2022-10-01T06:11:50.156Z,98.27
2022-10-01T06:14:17.288Z,98.30
2022-10-01T06:16:43.793Z,98.57
2022-10-01T06:19:10.458Z,98.44
2022-10-01T06:21:37.239Z,98.50
2022-10-01T06:24:04.018Z,98.68
2022-10-01T06:26:31.127Z,98.72
2022-10-01T06:28:57.781Z,98.80
2022-10-01T06:31:25.103Z,98.84
2022-10-01T06:33:51.646Z,98.94
2022-10-01T06:36:18.013Z,99.00
2022-10-01T06:38:48.070Z,99.11
2022-10-01T06:41:14.463Z,99.33
2022-10-01T06:43:40.818Z,99.51
2022-10-01T06:46:07.376Z,99.22
2022-10-01T06:48:36.309Z,99.31
2022-10-01T06:51:03.798Z,99.06
2022-10-01T06:53:30.433Z,99.32
2022-10-01T06:55:57.054Z,99.39
2022-10-01T06:58:27.568Z,99.37
2022-10-01T07:00:59.609Z,99.43
2022-10-01T07:03:26.038Z,99.61
2022-10-01T07:05:52.706Z,99.43
2022-10-01T07:08:20.980Z,99.54
2022-10-01T07:10:47.424Z,99.57
2022-10-01T07:13:18.589Z,99.53
2022-10-01T07:15:46.264Z,99.54
2022-10-01T07:18:13.073Z,99.64
2022-10-01T07:20:40.687Z,99.38
2022-10-01T07:23:10.738Z,99.20
2022-10-01T07:25:38.888Z,99.16
2022-10-01T07:28:07.562Z,99.13
2022-10-01T07:30:34.652Z,98.57
2022-10-01T07:33:01.071Z,98.32
2022-10-01T07:35:29.615Z,98.44
2022-10-01T07:37:56.455Z,98.22
2022-10-01T07:40:22.965Z,98.08
2022-10-01T07:42:54.526Z,97.85
2022-10-01T07:45:22.692Z,97.72
2022-10-01T07:47:56.597Z,97.57
2022-10-01T07:50:23.945Z,97.43
2022-10-01T07:52:55.325Z,97.18
2022-10-01T07:55:23.308Z,96.90
2022-10-01T07:57:52.236Z,96.87
2022-10-01T08:00:19.467Z,96.84
2022-10-01T08:02:53.556Z,96.42
2022-10-01T08:05:21.896Z,96.14
2022-10-01T08:07:49.603Z,95.57
2022-10-01T08:10:17.847Z,95.14
2022-10-01T08:12:44.708Z,95.01
2022-10-01T08:15:13.253Z,94.93
2022-10-01T08:17:45.804Z,94.96
2022-10-01T08:20:14.024Z,95.16
2022-10-01T08:22:42.258Z,95.05
2022-10-01T08:25:09.711Z,95.17
2022-10-01T08:27:36.824Z,95.32
2022-10-01T08:30:04.497Z,95.25
2022-10-01T08:32:31.147Z,95.28
2022-10-01T08:34:58.964Z,95.38
2022-10-01T08:37:27.124Z,95.32
2022-10-01T08:39:54.789Z,95.38
2022-10-01T08:42:43.778Z,95.25
2022-10-01T08:45:17.431Z,95.61
2022-10-01T08:47:59.953Z,95.54
2022-10-01T08:50:40.567Z,95.25
2022-10-01T08:53:15.251Z,95.25
2022-10-01T08:55:42.725Z,94.34
2022-10-01T08:58:12.981Z,93.83
2022-10-01T09:00:43.361Z,93.76
2022-10-01T09:03:14.778Z,93.44
2022-10-01T09:06:03.865Z,93.58
2022-10-01T09:09:06.532Z,93.55
2022-10-01T09:11:47.030Z,93.38
2022-10-01T09:14:33.944Z,93.03
2022-10-01T09:17:16.309Z,93.08
2022-10-01T09:20:16.515Z,92.43
2022-10-01T09:22:52.769Z,92.59
2022-10-01T09:25:24.461Z,92.63
2022-10-01T09:27:57.029Z,91.71
2022-10-01T09:30:25.157Z,91.77
2022-10-01T09:32:51.441Z,91.71
2022-10-01T09:35:26.286Z,90.75
2022-10-01T09:37:58.709Z,89.99
2022-10-01T09:40:35.550Z,88.69
2022-10-01T09:43:03.457Z,87.99
2022-10-01T09:45:29.943Z,87.24
2022-10-01T09:48:04.565Z,87.22
2022-10-01T09:50:39.673Z,86.04
2022-10-01T09:53:14.371Z,85.35
2022-10-01T09:55:44.145Z,86.22
2022-10-01T09:58:20.775Z,84.78
2022-10-01T10:00:51.375Z,84.98
2022-10-01T10:03:30.302Z,84.72
2022-10-01T10:05:59.808Z,83.59
2022-10-01T10:08:33.652Z,84.84
2022-10-01T10:11:02.918Z,84.49
2022-10-01T10:13:34.717Z,84.24
2022-10-01T10:16:08.459Z,85.15
2022-10-01T10:18:38.362Z,87.18
2022-10-01T10:21:11.993Z,85.64
2022-10-01T10:23:48.602Z,86.72
2022-10-01T10:26:28.444Z,86.07
2022-10-01T10:28:58.234Z,83.05
2022-10-01T10:31:27.714Z,82.62
2022-10-01T10:34:22.635Z,84.07
2022-10-01T10:36:55.936Z,82.54
2022-10-01T10:39:31.343Z,80.57
2022-10-01T10:42:00.149Z,81.87
2022-10-01T10:44:31.858Z,81.93
2022-10-01T10:47:05.236Z,80.20
2022-10-01T10:49:43.792Z,80.03
2022-10-01T10:52:30.444Z,79.13
2022-10-01T10:54:59.323Z,80.76
2022-10-01T10:57:34.273Z,79.69
2022-10-01T11:00:23.949Z,78.72
2022-10-01T11:03:04.227Z,76.76
2022-10-01T11:05:33.152Z,75.20
2022-10-01T11:08:02.912Z,75.19
2022-10-01T11:10:35.439Z,76.06
2022-10-01T11:13:26.504Z,76.92
2022-10-01T11:16:08.712Z,75.83
2022-10-01T11:18:43.743Z,73.30
2022-10-01T11:21:28.468Z,70.32
2022-10-01T11:24:40.671Z,71.63
2022-10-01T11:27:15.541Z,73.45
2022-10-01T11:30:21.615Z,74.63
2022-10-01T11:33:31.424Z,76.72
2022-10-01T11:36:02.973Z,78.05
2022-10-01T11:38:45.604Z,77.59
2022-10-01T11:41:19.058Z,76.39
2022-10-01T11:43:52.391Z,77.83
2022-10-01T11:46:35.468Z,76.56
2022-10-01T11:49:26.861Z,76.30
2022-10-01T11:52:14.994Z,76.63
2022-10-01T11:55:35.508Z,76.54
2022-10-01T11:58:43.277Z,74.51
2022-10-01T12:01:34.406Z,69.55
2022-10-01T12:04:07.202Z,71.69
2022-10-01T12:06:59.145Z,71.77
2022-10-01T12:09:44.419Z,70.44
2022-10-01T12:12:17.576Z,72.62
2022-10-01T12:15:06.530Z,70.86
2022-10-01T12:17:44.618Z,72.47
2022-10-01T12:20:28.314Z,71.74
2022-10-01T12:22:56.294Z,71.19
2022-10-01T12:25:28.949Z,70.21
2022-10-01T12:28:17.465Z,72.03
2022-10-01T12:30:57.999Z,70.04
2022-10-01T12:33:51.169Z,70.39
2022-10-01T12:36:45.525Z,69.19
2022-10-01T12:39:18.374Z,66.33
2022-10-01T12:42:03.084Z,65.87
2022-10-01T12:44:51.496Z,67.21
2022-10-01T12:47:29.677Z,66.96
2022-10-01T12:50:17.537Z,63.78
2022-10-01T12:52:52.010Z,65.10
2022-10-01T12:55:34.253Z,67.63
2022-10-01T12:58:27.905Z,68.22
2022-10-01T13:01:05.852Z,69.72
2022-10-01T13:03:50.917Z,67.84
2022-10-01T13:06:45.713Z,66.57
2022-10-01T13:09:31.135Z,64.40
2022-10-01T13:12:27.261Z,62.91
2022-10-01T13:14:55.031Z,61.58
2022-10-01T13:17:35.014Z,61.02
2022-10-01T13:20:11.474Z,62.67
2022-10-01T13:22:58.868Z,64.23
2022-10-01T13:25:36.347Z,61.39
2022-10-01T13:28:05.629Z,63.15
2022-10-01T13:30:49.304Z,62.23
2022-10-01T13:33:26.163Z,61.43
2022-10-01T13:35:55.912Z,60.18
2022-10-01T13:38:38.917Z,58.95
2022-10-01T13:41:18.008Z,59.34
2022-10-01T13:43:59.076Z,61.52
2022-10-01T13:46:31.030Z,62.78
2022-10-01T13:49:07.518Z,63.10
2022-10-01T13:51:37.938Z,65.38
2022-10-01T13:54:08.051Z,67.43
2022-10-01T13:56:37.635Z,61.57
2022-10-01T13:59:21.326Z,60.12
2022-10-01T14:01:47.868Z,61.49
2022-10-01T14:04:28.088Z,59.07
2022-10-01T14:06:58.757Z,61.12
2022-10-01T14:09:41.141Z,63.65
2022-10-01T14:12:49.810Z,60.20
2022-10-01T14:15:45.342Z,59.93
2022-10-01T14:18:19.100Z,60.06
2022-10-01T14:20:56.500Z,60.25
2022-10-01T14:23:37.295Z,60.51
2022-10-01T14:26:06.666Z,61.29
2022-10-01T14:28:54.179Z,60.94
2022-10-01T14:31:39.675Z,60.67
2022-10-01T14:34:21.280Z,61.17
2022-10-01T14:36:50.807Z,62.79
2022-10-01T14:39:29.203Z,62.86
2022-10-01T14:41:57.932Z,63.42
2022-10-01T14:44:36.917Z,62.95
2022-10-01T14:47:20.276Z,62.42
2022-10-01T14:49:47.642Z,62.79
2022-10-01T14:52:26.934Z,63.84
2022-10-01T14:55:15.073Z,66.63
2022-10-01T14:57:44.781Z,66.43
2022-10-01T15:00:21.649Z,65.14
2022-10-01T15:02:52.169Z,68.53
2022-10-01T15:05:21.468Z,64.63
2022-10-01T15:07:48.061Z,64.62
2022-10-01T15:10:18.638Z,64.85
2022-10-01T15:12:46.535Z,68.33
2022-10-01T15:15:32.606Z,64.32
2022-10-01T15:17:59.418Z,64.64
2022-10-01T15:20:27.026Z,62.62
2022-10-01T15:23:00.382Z,65.14
2022-10-01T15:25:31.177Z,64.38
2022-10-01T15:27:57.652Z,64.15
2022-10-01T15:30:27.510Z,65.97
2022-10-01T15:32:54.421Z,66.39
2022-10-01T15:35:23.288Z,66.14
2022-10-01T15:37:51.493Z,66.17
2022-10-01T15:40:25.074Z,66.47
2022-10-01T15:43:24.300Z,66.50
2022-10-01T15:46:18.432Z,65.99
2022-10-01T15:48:46.352Z,65.87
2022-10-01T15:51:24.347Z,66.63
2022-10-01T15:53:52.232Z,66.29
2022-10-01T15:56:23.903Z,65.85
2022-10-01T15:59:17.466Z,66.85
2022-10-01T16:01:44.127Z,66.17
2022-10-01T16:04:16.793Z,67.09
2022-10-01T16:06:46.909Z,66.97
2022-10-01T16:09:19.150Z,67.17
2022-10-01T16:12:01.749Z,67.86
2022-10-01T16:14:30.112Z,67.55
2022-10-01T16:17:19.020Z,68.36
2022-10-01T16:19:50.782Z,68.62
2022-10-01T16:22:24.241Z,68.54
2022-10-01T16:24:53.916Z,68.42
2022-10-01T16:27:35.181Z,68.37
2022-10-01T16:30:08.952Z,68.61
2022-10-01T16:32:35.749Z,68.54
2022-10-01T16:35:26.630Z,68.86
2022-10-01T16:37:56.044Z,68.71
2022-10-01T16:40:25.628Z,68.85
2022-10-01T16:42:52.897Z,70.16
2022-10-01T16:45:24.631Z,69.71
2022-10-01T16:47:56.618Z,69.29
2022-10-01T16:50:23.990Z,69.75
2022-10-01T16:52:54.630Z,69.78
2022-10-01T16:55:25.089Z,71.16
2022-10-01T16:57:54.884Z,70.16
2022-10-01T17:00:23.840Z,70.56
2022-10-01T17:02:50.348Z,70.80
2022-10-01T17:05:28.607Z,70.89
2022-10-01T17:08:04.341Z,71.21
2022-10-01T17:10:35.811Z,71.40
2022-10-01T17:13:03.502Z,71.91
2022-10-01T17:15:30.726Z,71.73
2022-10-01T17:17:58.957Z,71.68
2022-10-01T17:20:28.536Z,71.73
2022-10-01T17:22:55.961Z,71.71
2022-10-01T17:25:24.938Z,72.06
2022-10-01T17:27:52.112Z,72.28
2022-10-01T17:30:18.516Z,72.74
2022-10-01T17:32:44.861Z,73.13
2022-10-01T17:35:12.900Z,74.03
2022-10-01T17:37:40.477Z,74.47
2022-10-01T17:40:08.330Z,74.87
2022-10-01T17:42:35.599Z,75.32
2022-10-01T17:45:04.474Z,75.68
2022-10-01T17:47:31.225Z,76.06
2022-10-01T17:49:57.632Z,76.50
2022-10-01T17:52:24.000Z,77.07
2022-10-01T17:54:50.353Z,77.54
2022-10-01T17:57:17.198Z,78.07
2022-10-01T17:59:43.664Z,78.53
2022-10-01T18:02:36.736Z,78.69
2022-10-01T18:04:59.021Z,79.13
2022-10-01T18:07:26.343Z,79.31
2022-10-01T18:09:53.806Z,79.32
2022-10-01T18:12:20.366Z,79.93
2022-10-01T18:14:46.878Z,80.42
2022-10-01T18:17:13.427Z,80.22
2022-10-01T18:19:53.275Z,80.69
2022-10-01T18:22:21.676Z,80.67
2022-10-01T18:24:48.036Z,80.74
2022-10-01T18:27:14.884Z,80.88
2022-10-01T18:29:41.588Z,81.38
2022-10-01T18:32:20.796Z,82.46
2022-10-01T18:34:49.825Z,82.53
2022-10-01T18:37:29.341Z,82.47
2022-10-01T18:40:24.937Z,82.41
2022-10-01T18:42:54.604Z,82.36
2022-10-01T18:45:58.552Z,82.62
2022-10-01T18:48:37.540Z,82.55
2022-10-01T18:51:33.242Z,82.75
2022-10-01T18:54:09.239Z,83.27
2022-10-01T18:56:37.699Z,83.29
2022-10-01T18:59:35.637Z,84.22
2022-10-01T19:02:16.097Z,84.47
2022-10-01T19:05:06.821Z,84.72
2022-10-01T19:07:39.627Z,84.85
2022-10-01T19:10:39.705Z,85.26
2022-10-01T19:13:17.257Z,85.50
2022-10-01T19:15:58.276Z,85.67
2022-10-01T19:18:55.038Z,85.84
2022-10-01T19:21:33.079Z,86.11
2022-10-01T19:24:39.807Z,86.39
2022-10-01T19:27:21.865Z,86.60
2022-10-01T19:30:06.991Z,86.76
2022-10-01T19:32:41.432Z,86.62
2022-10-01T19:35:21.858Z,86.63
2022-10-01T19:38:11.216Z,87.02
2022-10-01T19:40:52.360Z,86.86
2022-10-01T19:43:26.258Z,86.71
2022-10-01T19:46:04.744Z,86.81
2022-10-01T19:49:02.960Z,86.38
2022-10-01T19:51:33.806Z,86.53
2022-10-01T19:54:01.516Z,86.54
2022-10-01T19:56:30.981Z,86.39
2022-10-01T19:59:01.481Z,86.47
2022-10-01T20:01:37.708Z,86.46
2022-10-01T20:04:11.305Z,86.25
2022-10-01T20:06:42.374Z,86.45
2022-10-01T20:09:29.138Z,86.56
2022-10-01T20:12:16.684Z,86.48
2022-10-01T20:15:01.660Z,86.29
2022-10-01T20:18:13.361Z,86.70
2022-10-01T20:20:59.514Z,86.83
2022-10-01T20:24:03.154Z,86.77
2022-10-01T20:27:03.681Z,86.57
2022-10-01T20:30:11.876Z,86.55
2022-10-01T20:32:38.138Z,86.52
2022-10-01T20:35:22.073Z,86.43
2022-10-01T20:38:07.282Z,86.73
2022-10-01T20:40:49.522Z,86.79
2022-10-01T20:43:37.049Z,87.04
2022-10-01T20:46:17.889Z,87.06
2022-10-01T20:48:49.425Z,87.15
2022-10-01T20:51:22.586Z,87.51
2022-10-01T20:53:54.796Z,87.72
2022-10-01T20:56:28.119Z,87.88
2022-10-01T20:59:02.011Z,88.19
2022-10-01T21:01:32.669Z,88.26
2022-10-01T21:04:11.183Z,88.17
2022-10-01T21:06:42.726Z,88.48
2022-10-01T21:09:21.050Z,88.62
2022-10-01T21:12:20.626Z,88.68
2022-10-01T21:14:53.979Z,89.17
2022-10-01T21:17:53.375Z,89.13
2022-10-01T21:20:53.241Z,89.01
2022-10-01T21:23:39.606Z,89.57
2022-10-01T21:26:18.998Z,89.85
2022-10-01T21:29:04.820Z,90.12
2022-10-01T21:31:49.991Z,89.96
2022-10-01T21:34:29.726Z,90.35
2022-10-01T21:37:24.777Z,90.55
2022-10-01T21:40:16.460Z,90.76
2022-10-01T21:43:10.149Z,90.89
2022-10-01T21:45:51.866Z,91.11
2022-10-01T21:48:37.256Z,91.57
2022-10-01T21:51:29.093Z,91.69
2022-10-01T21:54:26.301Z,91.86
2022-10-01T21:57:02.135Z,92.09
2022-10-01T21:59:50.324Z,92.28
2022-10-01T22:02:47.981Z,92.62
2022-10-01T22:05:29.311Z,92.84
2022-10-01T22:08:18.641Z,93.30
2022-10-01T22:10:54.254Z,93.31
2022-10-01T22:13:28.481Z,93.66
2022-10-01T22:16:05.640Z,94.07
2022-10-01T22:18:45.467Z,94.05
2022-10-01T22:21:22.900Z,94.38
2022-10-01T22:23:58.890Z,94.44
2022-10-01T22:26:30.051Z,94.50
2022-10-01T22:28:59.275Z,94.81
2022-10-01T22:31:33.411Z,95.10
2022-10-01T22:34:05.475Z,95.25
2022-10-01T22:36:39.289Z,95.50
2022-10-01T22:39:29.549Z,95.59
2022-10-01T22:42:19.191Z,95.51
2022-10-01T22:44:46.382Z,95.96
2022-10-01T22:47:15.697Z,96.29
2022-10-01T22:50:03.761Z,96.57
2022-10-01T22:53:03.729Z,96.01
2022-10-01T22:55:54.725Z,94.54
2022-10-01T22:58:40.020Z,93.73
2022-10-01T23:01:41.087Z,93.19
2022-10-01T23:04:22.416Z,93.44
2022-10-01T23:07:00.232Z,93.31
2022-10-01T23:09:46.422Z,93.49
2022-10-01T23:12:25.965Z,93.92
2022-10-01T23:15:22.184Z,93.96
2022-10-01T23:18:03.969Z,94.50
2022-10-01T23:20:37.341Z,94.88
2022-10-01T23:23:25.274Z,94.86
2022-10-01T23:26:36.291Z,94.87
2022-10-01T23:29:23.964Z,94.67
2022-10-01T23:32:00.573Z,94.77
2022-10-01T23:34:51.402Z,94.70
2022-10-01T23:37:38.689Z,94.50
2022-10-01T23:40:09.377Z,94.37
2022-10-01T23:42:42.216Z,94.48
2022-10-01T23:45:23.590Z,94.40
2022-10-01T23:47:56.032Z,94.50
2022-10-01T23:50:31.011Z,94.40
2022-10-01T23:53:21.457Z,94.09
2022-10-01T23:56:15.715Z,94.31
2022-10-01T23:58:48.381Z,94.52
